sensor_id;sensor_type;location;lat;lon;timestamp;P1;durP1;ratioP1;P2;durP2;ratioP2
43664;SDS011;29263;48.172;11.484;2023-05-10T00:01:10;1.27;;;0.60;;
43664;SDS011;29263;48.172;11.484;2023-05-10T00:03:36;1.40;;;0.82;;
43664;SDS011;29263;48.172;11.484;2023-05-10T00:06:02;1.25;;;0.57;;
43664;SDS011;29263;48.172;11.484;2023-05-10T00:08:28;0.60;;;0.50;;
43664;SDS011;29263;48.172;11.484;2023-05-10T00:10:53;1.95;;;0.65;;
43664;SDS011;29263;48.172;11.484;2023-05-10T00:13:19;0.80;;;0.80;;
43664;SDS011;29263;48.172;11.484;2023-05-10T00:15:45;0.85;;;0.45;;
43664;SDS011;29263;48.172;11.484;2023-05-10T00:18:10;1.27;;;0.70;;
43664;SDS011;29263;48.172;11.484;2023-05-10T00:20:36;1.10;;;0.50;;
43664;SDS011;29263;48.172;11.484;2023-05-10T00:23:02;1.20;;;0.60;;
43664;SDS011;29263;48.172;11.484;2023-05-10T00:25:27;0.45;;;0.45;;
43664;SDS011;29263;48.172;11.484;2023-05-10T00:27:53;1.30;;;0.50;;
43664;SDS011;29263;48.172;11.484;2023-05-10T00:30:20;0.52;;;0.52;;
43664;SDS011;29263;48.172;11.484;2023-05-10T00:32:48;1.87;;;0.43;;
43664;SDS011;29263;48.172;11.484;2023-05-10T00:35:15;1.17;;;0.45;;
43664;SDS011;29263;48.172;11.484;2023-05-10T00:37:40;0.85;;;0.40;;
43664;SDS011;29263;48.172;11.484;2023-05-10T00:40:06;2.00;;;0.40;;
43664;SDS011;29263;48.172;11.484;2023-05-10T00:42:32;1.08;;;0.60;;
43664;SDS011;29263;48.172;11.484;2023-05-10T00:44:58;0.50;;;0.30;;
43664;SDS011;29263;48.172;11.484;2023-05-10T00:47:24;0.30;;;0.30;;
43664;SDS011;29263;48.172;11.484;2023-05-10T00:49:49;0.57;;;0.30;;
43664;SDS011;29263;48.172;11.484;2023-05-10T00:52:15;1.45;;;0.43;;
43664;SDS011;29263;48.172;11.484;2023-05-10T00:54:41;1.88;;;0.40;;
43664;SDS011;29263;48.172;11.484;2023-05-10T00:57:07;0.40;;;0.40;;
43664;SDS011;29263;48.172;11.484;2023-05-10T00:59:33;0.65;;;0.55;;
43664;SDS011;29263;48.172;11.484;2023-05-10T01:01:59;0.20;;;0.20;;
43664;SDS011;29263;48.172;11.484;2023-05-10T01:04:25;1.55;;;0.40;;
43664;SDS011;29263;48.172;11.484;2023-05-10T01:06:51;0.75;;;0.40;;
43664;SDS011;29263;48.172;11.484;2023-05-10T01:09:18;0.73;;;0.50;;
43664;SDS011;29263;48.172;11.484;2023-05-10T01:11:45;2.17;;;0.30;;
43664;SDS011;29263;48.172;11.484;2023-05-10T01:14:11;2.25;;;0.32;;
43664;SDS011;29263;48.172;11.484;2023-05-10T01:16:37;0.50;;;0.20;;
43664;SDS011;29263;48.172;11.484;2023-05-10T01:19:11;0.30;;;0.28;;
43664;SDS011;29263;48.172;11.484;2023-05-10T01:21:48;0.80;;;0.20;;
43664;SDS011;29263;48.172;11.484;2023-05-10T01:32:51;0.40;;;0.22;;
43664;SDS011;29263;48.172;11.484;2023-05-10T01:35:35;0.52;;;0.30;;
43664;SDS011;29263;48.172;11.484;2023-05-10T01:38:21;1.23;;;0.20;;
43664;SDS011;29263;48.172;11.484;2023-05-10T01:41:08;0.60;;;0.60;;
43664;SDS011;29263;48.172;11.484;2023-05-10T01:43:57;0.20;;;0.20;;
43664;SDS011;29263;48.172;11.484;2023-05-10T01:46:27;0.65;;;0.30;;
43664;SDS011;29263;48.172;11.484;2023-05-10T01:48:58;0.82;;;0.30;;
43664;SDS011;29263;48.172;11.484;2023-05-10T01:51:27;0.22;;;0.22;;
43664;SDS011;29263;48.172;11.484;2023-05-10T01:54:02;1.35;;;0.30;;
43664;SDS011;29263;48.172;11.484;2023-05-10T01:56:30;1.50;;;0.20;;
43664;SDS011;29263;48.172;11.484;2023-05-10T01:58:58;0.25;;;0.17;;
43664;SDS011;29263;48.172;11.484;2023-05-10T02:01:25;0.50;;;0.25;;
43664;SDS011;29263;48.172;11.484;2023-05-10T02:03:52;0.63;;;0.20;;
43664;SDS011;29263;48.172;11.484;2023-05-10T02:06:19;0.40;;;0.28;;
43664;SDS011;29263;48.172;11.484;2023-05-10T02:08:47;1.75;;;0.30;;
43664;SDS011;29263;48.172;11.484;2023-05-10T02:11:15;0.20;;;0.20;;
43664;SDS011;29263;48.172;11.484;2023-05-10T02:13:43;1.65;;;0.20;;
43664;SDS011;29263;48.172;11.484;2023-05-10T02:16:12;0.63;;;0.25;;
43664;SDS011;29263;48.172;11.484;2023-05-10T02:18:39;0.20;;;0.20;;
43664;SDS011;29263;48.172;11.484;2023-05-10T02:21:06;1.45;;;0.17;;
43664;SDS011;29263;48.172;11.484;2023-05-10T02:23:34;2.53;;;0.43;;
43664;SDS011;29263;48.172;11.484;2023-05-10T02:26:00;0.10;;;0.10;;
43664;SDS011;29263;48.172;11.484;2023-05-10T02:28:28;0.30;;;0.30;;
43664;SDS011;29263;48.172;11.484;2023-05-10T02:30:55;0.30;;;0.30;;
43664;SDS011;29263;48.172;11.484;2023-05-10T02:33:21;0.77;;;0.22;;
43664;SDS011;29263;48.172;11.484;2023-05-10T02:35:48;0.40;;;0.20;;
43664;SDS011;29263;48.172;11.484;2023-05-10T02:38:15;1.27;;;0.35;;
43664;SDS011;29263;48.172;11.484;2023-05-10T02:40:42;0.30;;;0.30;;
43664;SDS011;29263;48.172;11.484;2023-05-10T02:43:11;1.55;;;0.20;;
43664;SDS011;29263;48.172;11.484;2023-05-10T02:45:39;1.33;;;0.40;;
43664;SDS011;29263;48.172;11.484;2023-05-10T02:48:06;0.60;;;0.30;;
43664;SDS011;29263;48.172;11.484;2023-05-10T02:50:32;0.20;;;0.20;;
43664;SDS011;29263;48.172;11.484;2023-05-10T02:53:02;0.93;;;0.40;;
43664;SDS011;29263;48.172;11.484;2023-05-10T02:55:38;0.20;;;0.20;;
43664;SDS011;29263;48.172;11.484;2023-05-10T02:58:06;0.30;;;0.20;;
43664;SDS011;29263;48.172;11.484;2023-05-10T03:00:32;0.60;;;0.30;;
43664;SDS011;29263;48.172;11.484;2023-05-10T03:02:57;0.40;;;0.20;;
43664;SDS011;29263;48.172;11.484;2023-05-10T03:05:23;0.50;;;0.40;;
43664;SDS011;29263;48.172;11.484;2023-05-10T03:07:49;3.22;;;0.40;;
43664;SDS011;29263;48.172;11.484;2023-05-10T03:10:16;0.52;;;0.30;;
43664;SDS011;29263;48.172;11.484;2023-05-10T03:18:03;0.40;;;0.25;;
43664;SDS011;29263;48.172;11.484;2023-05-10T03:20:36;0.40;;;0.30;;
43664;SDS011;29263;48.172;11.484;2023-05-10T03:23:07;0.43;;;0.43;;
43664;SDS011;29263;48.172;11.484;2023-05-10T03:25:39;0.20;;;0.20;;
43664;SDS011;29263;48.172;11.484;2023-05-10T03:28:06;1.75;;;0.45;;
43664;SDS011;29263;48.172;11.484;2023-05-10T03:30:32;2.28;;;0.20;;
43664;SDS011;29263;48.172;11.484;2023-05-10T03:32:59;1.38;;;0.30;;
43664;SDS011;29263;48.172;11.484;2023-05-10T03:35:31;0.40;;;0.20;;
43664;SDS011;29263;48.172;11.484;2023-05-10T03:37:57;0.50;;;0.50;;
43664;SDS011;29263;48.172;11.484;2023-05-10T03:40:23;1.75;;;0.30;;
43664;SDS011;29263;48.172;11.484;2023-05-10T03:42:49;0.30;;;0.20;;
43664;SDS011;29263;48.172;11.484;2023-05-10T03:45:15;0.30;;;0.30;;
43664;SDS011;29263;48.172;11.484;2023-05-10T03:47:43;2.05;;;0.40;;
43664;SDS011;29263;48.172;11.484;2023-05-10T03:50:09;2.15;;;0.30;;
43664;SDS011;29263;48.172;11.484;2023-05-10T03:52:35;0.45;;;0.30;;
43664;SDS011;29263;48.172;11.484;2023-05-10T03:55:01;0.20;;;0.20;;
43664;SDS011;29263;48.172;11.484;2023-05-10T03:57:28;0.20;;;0.20;;
43664;SDS011;29263;48.172;11.484;2023-05-10T03:59:54;1.52;;;0.30;;
43664;SDS011;29263;48.172;11.484;2023-05-10T04:02:19;1.13;;;0.30;;
43664;SDS011;29263;48.172;11.484;2023-05-10T04:04:45;0.85;;;0.30;;
43664;SDS011;29263;48.172;11.484;2023-05-10T04:07:10;0.10;;;0.10;;
43664;SDS011;29263;48.172;11.484;2023-05-10T04:09:36;0.30;;;0.10;;
43664;SDS011;29263;48.172;11.484;2023-05-10T04:12:02;1.48;;;0.20;;
43664;SDS011;29263;48.172;11.484;2023-05-10T04:14:27;0.32;;;0.20;;
43664;SDS011;29263;48.172;11.484;2023-05-10T04:16:53;0.85;;;0.35;;
43664;SDS011;29263;48.172;11.484;2023-05-10T04:19:19;0.77;;;0.10;;
43664;SDS011;29263;48.172;11.484;2023-05-10T04:21:44;0.10;;;0.10;;
43664;SDS011;29263;48.172;11.484;2023-05-10T04:24:13;0.20;;;0.20;;
43664;SDS011;29263;48.172;11.484;2023-05-10T04:26:39;0.47;;;0.25;;
43664;SDS011;29263;48.172;11.484;2023-05-10T04:29:04;3.72;;;0.30;;
43664;SDS011;29263;48.172;11.484;2023-05-10T04:31:30;1.58;;;0.30;;
43664;SDS011;29263;48.172;11.484;2023-05-10T04:33:56;1.85;;;0.38;;
43664;SDS011;29263;48.172;11.484;2023-05-10T04:36:21;0.68;;;0.20;;
43664;SDS011;29263;48.172;11.484;2023-05-10T04:38:47;0.80;;;0.30;;
43664;SDS011;29263;48.172;11.484;2023-05-10T04:41:13;0.17;;;0.10;;
43664;SDS011;29263;48.172;11.484;2023-05-10T04:43:38;0.57;;;0.20;;
43664;SDS011;29263;48.172;11.484;2023-05-10T04:46:04;0.90;;;0.25;;
43664;SDS011;29263;48.172;11.484;2023-05-10T04:48:30;0.10;;;0.10;;
43664;SDS011;29263;48.172;11.484;2023-05-10T04:50:56;0.20;;;0.20;;
43664;SDS011;29263;48.172;11.484;2023-05-10T04:53:22;3.50;;;0.20;;
43664;SDS011;29263;48.172;11.484;2023-05-10T04:55:47;0.40;;;0.40;;
43664;SDS011;29263;48.172;11.484;2023-05-10T04:58:13;0.20;;;0.20;;
43664;SDS011;29263;48.172;11.484;2023-05-10T05:00:39;0.38;;;0.15;;
43664;SDS011;29263;48.172;11.484;2023-05-10T05:03:05;1.75;;;0.40;;
43664;SDS011;29263;48.172;11.484;2023-05-10T05:05:31;0.57;;;0.30;;
43664;SDS011;29263;48.172;11.484;2023-05-10T05:07:56;0.63;;;0.30;;
43664;SDS011;29263;48.172;11.484;2023-05-10T05:10:22;0.50;;;0.40;;
43664;SDS011;29263;48.172;11.484;2023-05-10T05:12:47;0.28;;;0.10;;
43664;SDS011;29263;48.172;11.484;2023-05-10T05:15:13;0.73;;;0.20;;
43664;SDS011;29263;48.172;11.484;2023-05-10T05:17:40;0.57;;;0.13;;
43664;SDS011;29263;48.172;11.484;2023-05-10T05:20:06;0.35;;;0.20;;
43664;SDS011;29263;48.172;11.484;2023-05-10T05:22:32;0.30;;;0.30;;
43664;SDS011;29263;48.172;11.484;2023-05-10T05:24:57;2.60;;;0.30;;
43664;SDS011;29263;48.172;11.484;2023-05-10T05:27:23;0.95;;;0.20;;
43664;SDS011;29263;48.172;11.484;2023-05-10T05:29:54;0.50;;;0.20;;
43664;SDS011;29263;48.172;11.484;2023-05-10T05:32:20;0.82;;;0.22;;
43664;SDS011;29263;48.172;11.484;2023-05-10T05:34:46;0.30;;;0.30;;
43664;SDS011;29263;48.172;11.484;2023-05-10T05:37:13;2.38;;;0.35;;
43664;SDS011;29263;48.172;11.484;2023-05-10T05:39:42;4.80;;;0.98;;
43664;SDS011;29263;48.172;11.484;2023-05-10T05:42:09;0.77;;;0.28;;
43664;SDS011;29263;48.172;11.484;2023-05-10T05:44:35;0.60;;;0.20;;
43664;SDS011;29263;48.172;11.484;2023-05-10T05:47:00;0.20;;;0.20;;
43664;SDS011;29263;48.172;11.484;2023-05-10T05:49:26;0.30;;;0.20;;
43664;SDS011;29263;48.172;11.484;2023-05-10T05:51:52;0.05;;;0.05;;
43664;SDS011;29263;48.172;11.484;2023-05-10T05:54:18;0.30;;;0.20;;
43664;SDS011;29263;48.172;11.484;2023-05-10T05:56:43;0.32;;;0.20;;
43664;SDS011;29263;48.172;11.484;2023-05-10T05:59:09;0.10;;;0.10;;
43664;SDS011;29263;48.172;11.484;2023-05-10T06:01:36;0.50;;;0.20;;
43664;SDS011;29263;48.172;11.484;2023-05-10T06:04:01;0.60;;;0.30;;
43664;SDS011;29263;48.172;11.484;2023-05-10T06:06:27;0.63;;;0.30;;
43664;SDS011;29263;48.172;11.484;2023-05-10T06:08:53;1.20;;;0.28;;
43664;SDS011;29263;48.172;11.484;2023-05-10T06:11:19;0.40;;;0.20;;
43664;SDS011;29263;48.172;11.484;2023-05-10T06:13:46;0.47;;;0.38;;
43664;SDS011;29263;48.172;11.484;2023-05-10T06:16:12;1.23;;;0.32;;
43664;SDS011;29263;48.172;11.484;2023-05-10T06:18:38;1.38;;;0.20;;
43664;SDS011;29263;48.172;11.484;2023-05-10T06:21:04;0.30;;;0.22;;
43664;SDS011;29263;48.172;11.484;2023-05-10T06:23:29;0.40;;;0.32;;
43664;SDS011;29263;48.172;11.484;2023-05-10T06:25:55;1.83;;;0.55;;
43664;SDS011;29263;48.172;11.484;2023-05-10T06:28:20;0.63;;;0.20;;
43664;SDS011;29263;48.172;11.484;2023-05-10T06:30:46;0.40;;;0.40;;
43664;SDS011;29263;48.172;11.484;2023-05-10T06:33:12;0.50;;;0.43;;
43664;SDS011;29263;48.172;11.484;2023-05-10T06:35:38;0.85;;;0.20;;
43664;SDS011;29263;48.172;11.484;2023-05-10T06:38:04;0.45;;;0.38;;
43664;SDS011;29263;48.172;11.484;2023-05-10T06:40:29;1.85;;;0.30;;
43664;SDS011;29263;48.172;11.484;2023-05-10T06:42:55;0.63;;;0.40;;
43664;SDS011;29263;48.172;11.484;2023-05-10T06:45:20;2.28;;;0.38;;
43664;SDS011;29263;48.172;11.484;2023-05-10T06:47:46;0.30;;;0.30;;
43664;SDS011;29263;48.172;11.484;2023-05-10T06:50:12;1.65;;;0.50;;
43664;SDS011;29263;48.172;11.484;2023-05-10T06:52:38;0.55;;;0.43;;
43664;SDS011;29263;48.172;11.484;2023-05-10T06:55:03;0.77;;;0.52;;
43664;SDS011;29263;48.172;11.484;2023-05-10T06:57:30;0.52;;;0.30;;
43664;SDS011;29263;48.172;11.484;2023-05-10T06:59:56;0.50;;;0.50;;
43664;SDS011;29263;48.172;11.484;2023-05-10T07:02:22;1.27;;;0.50;;
43664;SDS011;29263;48.172;11.484;2023-05-10T07:04:48;3.05;;;0.30;;
43664;SDS011;29263;48.172;11.484;2023-05-10T07:07:13;0.98;;;0.50;;
43664;SDS011;29263;48.172;11.484;2023-05-10T07:09:39;1.15;;;0.70;;
43664;SDS011;29263;48.172;11.484;2023-05-10T07:12:05;0.70;;;0.50;;
43664;SDS011;29263;48.172;11.484;2023-05-10T07:14:31;0.63;;;0.60;;
43664;SDS011;29263;48.172;11.484;2023-05-10T07:16:56;2.38;;;0.47;;
43664;SDS011;29263;48.172;11.484;2023-05-10T07:19:22;0.60;;;0.50;;
43664;SDS011;29263;48.172;11.484;2023-05-10T07:21:48;0.63;;;0.50;;
43664;SDS011;29263;48.172;11.484;2023-05-10T07:24:25;0.90;;;0.38;;
43664;SDS011;29263;48.172;11.484;2023-05-10T07:26:54;1.48;;;0.85;;
43664;SDS011;29263;48.172;11.484;2023-05-10T07:36:27;0.95;;;0.40;;
43664;SDS011;29263;48.172;11.484;2023-05-10T07:38:55;0.40;;;0.40;;
43664;SDS011;29263;48.172;11.484;2023-05-10T07:41:22;2.55;;;0.55;;
43664;SDS011;29263;48.172;11.484;2023-05-10T07:43:48;0.52;;;0.40;;
43664;SDS011;29263;48.172;11.484;2023-05-10T07:46:16;1.77;;;0.40;;
43664;SDS011;29263;48.172;11.484;2023-05-10T07:49:05;0.75;;;0.57;;
43664;SDS011;29263;48.172;11.484;2023-05-10T07:59:01;1.20;;;0.40;;
43664;SDS011;29263;48.172;11.484;2023-05-10T08:05:36;2.30;;;0.50;;
43664;SDS011;29263;48.172;11.484;2023-05-10T08:25:45;0.25;;;0.25;;
43664;SDS011;29263;48.172;11.484;2023-05-10T08:28:49;0.98;;;0.30;;
43664;SDS011;29263;48.172;11.484;2023-05-10T08:31:15;2.97;;;0.50;;
43664;SDS011;29263;48.172;11.484;2023-05-10T08:37:04;1.88;;;0.40;;
43664;SDS011;29263;48.172;11.484;2023-05-10T08:57:48;0.65;;;0.40;;
43664;SDS011;29263;48.172;11.484;2023-05-10T09:00:48;1.90;;;0.52;;
43664;SDS011;29263;48.172;11.484;2023-05-10T09:37:34;0.40;;;0.30;;
43664;SDS011;29263;48.172;11.484;2023-05-10T09:43:37;0.85;;;0.30;;
43664;SDS011;29263;48.172;11.484;2023-05-10T09:53:00;0.43;;;0.30;;
43664;SDS011;29263;48.172;11.484;2023-05-10T09:55:43;0.65;;;0.28;;
43664;SDS011;29263;48.172;11.484;2023-05-10T09:58:16;2.60;;;0.40;;
43664;SDS011;29263;48.172;11.484;2023-05-10T10:00:51;1.65;;;0.85;;
43664;SDS011;29263;48.172;11.484;2023-05-10T10:07:22;2.50;;;0.40;;
43664;SDS011;29263;48.172;11.484;2023-05-10T10:20:46;1.80;;;0.47;;
43664;SDS011;29263;48.172;11.484;2023-05-10T10:23:11;2.92;;;0.60;;
43664;SDS011;29263;48.172;11.484;2023-05-10T10:25:37;0.30;;;0.28;;
43664;SDS011;29263;48.172;11.484;2023-05-10T10:28:09;0.95;;;0.35;;
43664;SDS011;29263;48.172;11.484;2023-05-10T10:30:42;0.40;;;0.32;;
43664;SDS011;29263;48.172;11.484;2023-05-10T10:33:18;0.98;;;0.32;;
43664;SDS011;29263;48.172;11.484;2023-05-10T10:36:10;1.52;;;0.60;;
43664;SDS011;29263;48.172;11.484;2023-05-10T10:49:33;3.08;;;0.60;;
43664;SDS011;29263;48.172;11.484;2023-05-10T10:57:19;0.63;;;0.30;;
43664;SDS011;29263;48.172;11.484;2023-05-10T10:59:47;0.73;;;0.40;;
43664;SDS011;29263;48.172;11.484;2023-05-10T11:04:59;0.30;;;0.20;;
43664;SDS011;29263;48.172;11.484;2023-05-10T11:07:25;1.60;;;0.40;;
43664;SDS011;29263;48.172;11.484;2023-05-10T11:09:51;2.58;;;0.28;;
43664;SDS011;29263;48.172;11.484;2023-05-10T11:12:17;0.45;;;0.40;;
43664;SDS011;29263;48.172;11.484;2023-05-10T11:14:56;1.77;;;0.40;;
43664;SDS011;29263;48.172;11.484;2023-05-10T11:17:38;1.00;;;0.30;;
43664;SDS011;29263;48.172;11.484;2023-05-10T11:37:28;1.25;;;0.50;;
43664;SDS011;29263;48.172;11.484;2023-05-10T11:39:57;0.77;;;0.60;;
43664;SDS011;29263;48.172;11.484;2023-05-10T11:42:23;1.65;;;0.40;;
43664;SDS011;29263;48.172;11.484;2023-05-10T11:44:55;1.23;;;0.60;;
43664;SDS011;29263;48.172;11.484;2023-05-10T11:47:31;0.88;;;0.50;;
43664;SDS011;29263;48.172;11.484;2023-05-10T11:50:35;0.85;;;0.73;;
43664;SDS011;29263;48.172;11.484;2023-05-10T11:53:01;0.98;;;0.40;;
43664;SDS011;29263;48.172;11.484;2023-05-10T11:55:33;2.78;;;1.05;;
43664;SDS011;29263;48.172;11.484;2023-05-10T11:58:00;0.73;;;0.40;;
43664;SDS011;29263;48.172;11.484;2023-05-10T12:00:27;0.77;;;0.40;;
43664;SDS011;29263;48.172;11.484;2023-05-10T12:02:53;3.10;;;0.65;;
43664;SDS011;29263;48.172;11.484;2023-05-10T12:05:19;1.17;;;0.65;;
43664;SDS011;29263;48.172;11.484;2023-05-10T12:07:45;3.50;;;0.70;;
43664;SDS011;29263;48.172;11.484;2023-05-10T12:10:11;2.75;;;0.60;;
43664;SDS011;29263;48.172;11.484;2023-05-10T12:12:45;1.23;;;0.70;;
43664;SDS011;29263;48.172;11.484;2023-05-10T12:15:19;1.05;;;0.52;;
43664;SDS011;29263;48.172;11.484;2023-05-10T12:17:47;0.65;;;0.60;;
43664;SDS011;29263;48.172;11.484;2023-05-10T12:20:19;2.65;;;0.85;;
43664;SDS011;29263;48.172;11.484;2023-05-10T12:25:14;2.65;;;0.70;;
43664;SDS011;29263;48.172;11.484;2023-05-10T12:27:39;2.90;;;0.70;;
43664;SDS011;29263;48.172;11.484;2023-05-10T12:30:06;2.85;;;0.77;;
43664;SDS011;29263;48.172;11.484;2023-05-10T12:32:39;2.95;;;0.88;;
43664;SDS011;29263;48.172;11.484;2023-05-10T12:35:08;1.45;;;0.75;;
43664;SDS011;29263;48.172;11.484;2023-05-10T12:37:35;4.32;;;0.77;;
43664;SDS011;29263;48.172;11.484;2023-05-10T12:40:05;2.20;;;0.75;;
43664;SDS011;29263;48.172;11.484;2023-05-10T12:42:31;4.00;;;0.95;;
43664;SDS011;29263;48.172;11.484;2023-05-10T12:44:57;2.83;;;0.77;;
43664;SDS011;29263;48.172;11.484;2023-05-10T12:47:23;1.23;;;0.80;;
43664;SDS011;29263;48.172;11.484;2023-05-10T12:49:48;1.95;;;0.73;;
43664;SDS011;29263;48.172;11.484;2023-05-10T12:52:14;1.92;;;0.77;;
43664;SDS011;29263;48.172;11.484;2023-05-10T12:54:40;0.82;;;0.45;;
43664;SDS011;29263;48.172;11.484;2023-05-10T12:57:05;4.65;;;1.02;;
43664;SDS011;29263;48.172;11.484;2023-05-10T12:59:31;0.70;;;0.52;;
43664;SDS011;29263;48.172;11.484;2023-05-10T13:01:57;2.70;;;0.60;;
43664;SDS011;29263;48.172;11.484;2023-05-10T13:04:23;0.75;;;0.40;;
43664;SDS011;29263;48.172;11.484;2023-05-10T13:06:48;1.33;;;0.45;;
43664;SDS011;29263;48.172;11.484;2023-05-10T13:09:14;1.70;;;0.50;;
43664;SDS011;29263;48.172;11.484;2023-05-10T13:11:40;0.75;;;0.43;;
43664;SDS011;29263;48.172;11.484;2023-05-10T13:14:06;2.65;;;0.43;;
43664;SDS011;29263;48.172;11.484;2023-05-10T13:16:32;0.95;;;0.73;;
43664;SDS011;29263;48.172;11.484;2023-05-10T13:18:58;1.23;;;0.52;;
43664;SDS011;29263;48.172;11.484;2023-05-10T13:21:23;0.90;;;0.47;;
43664;SDS011;29263;48.172;11.484;2023-05-10T13:23:50;0.90;;;0.80;;
43664;SDS011;29263;48.172;11.484;2023-05-10T13:26:16;1.65;;;0.60;;
43664;SDS011;29263;48.172;11.484;2023-05-10T13:28:43;0.93;;;0.82;;
43664;SDS011;29263;48.172;11.484;2023-05-10T13:31:16;2.38;;;0.60;;
43664;SDS011;29263;48.172;11.484;2023-05-10T13:33:42;2.17;;;0.60;;
43664;SDS011;29263;48.172;11.484;2023-05-10T13:36:07;1.98;;;0.60;;
43664;SDS011;29263;48.172;11.484;2023-05-10T13:38:33;2.00;;;0.40;;
43664;SDS011;29263;48.172;11.484;2023-05-10T13:40:59;2.65;;;0.80;;
43664;SDS011;29263;48.172;11.484;2023-05-10T13:43:24;1.17;;;0.60;;
43664;SDS011;29263;48.172;11.484;2023-05-10T13:45:53;2.72;;;0.70;;
43664;SDS011;29263;48.172;11.484;2023-05-10T13:48:19;3.00;;;0.70;;
43664;SDS011;29263;48.172;11.484;2023-05-10T13:50:44;1.05;;;0.70;;
43664;SDS011;29263;48.172;11.484;2023-05-10T13:53:11;1.20;;;0.70;;
43664;SDS011;29263;48.172;11.484;2023-05-10T13:55:36;1.45;;;0.63;;
43664;SDS011;29263;48.172;11.484;2023-05-10T13:58:02;2.47;;;1.20;;
43664;SDS011;29263;48.172;11.484;2023-05-10T14:00:27;1.08;;;0.68;;
43664;SDS011;29263;48.172;11.484;2023-05-10T14:02:59;1.65;;;1.00;;
43664;SDS011;29263;48.172;11.484;2023-05-10T14:05:27;6.07;;;0.95;;
43664;SDS011;29263;48.172;11.484;2023-05-10T14:08:12;2.13;;;0.82;;
43664;SDS011;29263;48.172;11.484;2023-05-10T14:10:38;1.70;;;0.60;;
43664;SDS011;29263;48.172;11.484;2023-05-10T14:13:04;4.70;;;0.90;;
43664;SDS011;29263;48.172;11.484;2023-05-10T14:15:30;1.20;;;0.52;;
43664;SDS011;29263;48.172;11.484;2023-05-10T14:17:56;2.58;;;0.60;;
43664;SDS011;29263;48.172;11.484;2023-05-10T14:20:25;1.05;;;0.40;;
43664;SDS011;29263;48.172;11.484;2023-05-10T14:22:51;0.55;;;0.40;;
43664;SDS011;29263;48.172;11.484;2023-05-10T14:25:17;1.80;;;0.65;;
43664;SDS011;29263;48.172;11.484;2023-05-10T14:27:42;3.72;;;0.60;;
43664;SDS011;29263;48.172;11.484;2023-05-10T14:30:08;1.13;;;0.70;;
43664;SDS011;29263;48.172;11.484;2023-05-10T14:32:37;1.08;;;0.68;;
43664;SDS011;29263;48.172;11.484;2023-05-10T14:35:19;0.63;;;0.30;;
43664;SDS011;29263;48.172;11.484;2023-05-10T14:37:45;0.75;;;0.45;;
43664;SDS011;29263;48.172;11.484;2023-05-10T14:40:14;1.58;;;1.10;;
43664;SDS011;29263;48.172;11.484;2023-05-10T14:42:40;0.85;;;0.63;;
43664;SDS011;29263;48.172;11.484;2023-05-10T14:45:07;4.38;;;0.43;;
43664;SDS011;29263;48.172;11.484;2023-05-10T14:47:33;0.85;;;0.52;;
43664;SDS011;29263;48.172;11.484;2023-05-10T14:49:59;1.23;;;0.43;;
43664;SDS011;29263;48.172;11.484;2023-05-10T14:52:25;0.60;;;0.50;;
43664;SDS011;29263;48.172;11.484;2023-05-10T14:54:50;0.85;;;0.50;;
43664;SDS011;29263;48.172;11.484;2023-05-10T14:57:16;1.05;;;0.50;;
43664;SDS011;29263;48.172;11.484;2023-05-10T14:59:42;1.98;;;0.80;;
43664;SDS011;29263;48.172;11.484;2023-05-10T15:02:07;0.45;;;0.45;;
43664;SDS011;29263;48.172;11.484;2023-05-10T15:04:33;4.40;;;0.60;;
43664;SDS011;29263;48.172;11.484;2023-05-10T15:06:59;0.73;;;0.50;;
43664;SDS011;29263;48.172;11.484;2023-05-10T15:09:25;2.35;;;0.70;;
43664;SDS011;29263;48.172;11.484;2023-05-10T15:11:52;1.02;;;0.50;;
43664;SDS011;29263;48.172;11.484;2023-05-10T15:14:18;1.80;;;0.70;;
43664;SDS011;29263;48.172;11.484;2023-05-10T15:16:44;0.80;;;0.55;;
43664;SDS011;29263;48.172;11.484;2023-05-10T15:19:09;2.67;;;0.70;;
43664;SDS011;29263;48.172;11.484;2023-05-10T15:21:35;2.17;;;0.65;;
43664;SDS011;29263;48.172;11.484;2023-05-10T15:24:04;1.35;;;0.43;;
43664;SDS011;29263;48.172;11.484;2023-05-10T15:26:30;0.60;;;0.40;;
43664;SDS011;29263;48.172;11.484;2023-05-10T15:28:56;2.00;;;0.50;;
43664;SDS011;29263;48.172;11.484;2023-05-10T15:31:22;0.40;;;0.40;;
43664;SDS011;29263;48.172;11.484;2023-05-10T15:33:47;1.05;;;0.32;;
43664;SDS011;29263;48.172;11.484;2023-05-10T15:36:13;2.58;;;0.50;;
43664;SDS011;29263;48.172;11.484;2023-05-10T15:38:38;0.73;;;0.45;;
43664;SDS011;29263;48.172;11.484;2023-05-10T15:41:04;2.13;;;0.40;;
43664;SDS011;29263;48.172;11.484;2023-05-10T15:43:30;0.70;;;0.60;;
43664;SDS011;29263;48.172;11.484;2023-05-10T15:45:56;2.83;;;0.75;;
43664;SDS011;29263;48.172;11.484;2023-05-10T15:48:21;1.23;;;0.45;;
43664;SDS011;29263;48.172;11.484;2023-05-10T15:50:47;0.50;;;0.50;;
43664;SDS011;29263;48.172;11.484;2023-05-10T15:53:13;0.70;;;0.60;;
43664;SDS011;29263;48.172;11.484;2023-05-10T15:55:38;1.73;;;0.55;;
43664;SDS011;29263;48.172;11.484;2023-05-10T15:58:04;1.25;;;0.50;;
43664;SDS011;29263;48.172;11.484;2023-05-10T16:00:30;3.13;;;0.57;;
43664;SDS011;29263;48.172;11.484;2023-05-10T16:02:55;1.27;;;1.13;;
43664;SDS011;29263;48.172;11.484;2023-05-10T16:05:21;1.45;;;0.50;;
43664;SDS011;29263;48.172;11.484;2023-05-10T16:07:51;2.40;;;0.52;;
43664;SDS011;29263;48.172;11.484;2023-05-10T16:10:19;1.60;;;0.60;;
43664;SDS011;29263;48.172;11.484;2023-05-10T16:12:45;1.55;;;0.40;;
43664;SDS011;29263;48.172;11.484;2023-05-10T16:15:11;2.40;;;0.40;;
43664;SDS011;29263;48.172;11.484;2023-05-10T16:17:36;1.40;;;0.50;;
43664;SDS011;29263;48.172;11.484;2023-05-10T16:20:02;1.48;;;0.45;;
43664;SDS011;29263;48.172;11.484;2023-05-10T16:22:28;1.60;;;0.55;;
43664;SDS011;29263;48.172;11.484;2023-05-10T16:24:55;2.20;;;0.60;;
43664;SDS011;29263;48.172;11.484;2023-05-10T16:27:21;0.70;;;0.43;;
43664;SDS011;29263;48.172;11.484;2023-05-10T16:29:47;2.05;;;0.70;;
43664;SDS011;29263;48.172;11.484;2023-05-10T16:32:12;1.00;;;0.70;;
43664;SDS011;29263;48.172;11.484;2023-05-10T16:34:38;1.63;;;0.98;;
43664;SDS011;29263;48.172;11.484;2023-05-10T16:37:03;1.08;;;0.70;;
43664;SDS011;29263;48.172;11.484;2023-05-10T16:39:35;3.35;;;1.08;;
43664;SDS011;29263;48.172;11.484;2023-05-10T16:42:01;6.60;;;3.05;;
43664;SDS011;29263;48.172;11.484;2023-05-10T16:44:26;8.55;;;4.43;;
43664;SDS011;29263;48.172;11.484;2023-05-10T16:46:52;2.88;;;1.73;;
43664;SDS011;29263;48.172;11.484;2023-05-10T16:49:18;1.45;;;0.75;;
43664;SDS011;29263;48.172;11.484;2023-05-10T16:51:44;1.63;;;0.80;;
43664;SDS011;29263;48.172;11.484;2023-05-10T16:54:10;0.93;;;0.70;;
43664;SDS011;29263;48.172;11.484;2023-05-10T16:56:35;4.00;;;0.90;;
43664;SDS011;29263;48.172;11.484;2023-05-10T16:59:01;3.72;;;0.77;;
43664;SDS011;29263;48.172;11.484;2023-05-10T17:01:27;1.88;;;0.88;;
43664;SDS011;29263;48.172;11.484;2023-05-10T17:03:52;2.05;;;0.60;;
43664;SDS011;29263;48.172;11.484;2023-05-10T17:06:18;1.23;;;0.57;;
43664;SDS011;29263;48.172;11.484;2023-05-10T17:08:44;1.58;;;0.75;;
43664;SDS011;29263;48.172;11.484;2023-05-10T17:11:09;0.60;;;0.50;;
43664;SDS011;29263;48.172;11.484;2023-05-10T17:13:35;6.78;;;1.13;;
43664;SDS011;29263;48.172;11.484;2023-05-10T17:16:02;1.27;;;0.50;;
43664;SDS011;29263;48.172;11.484;2023-05-10T17:18:28;3.45;;;0.60;;
43664;SDS011;29263;48.172;11.484;2023-05-10T17:20:54;0.90;;;0.60;;
43664;SDS011;29263;48.172;11.484;2023-05-10T17:23:19;0.60;;;0.50;;
43664;SDS011;29263;48.172;11.484;2023-05-10T17:25:45;0.68;;;0.40;;